sensor_id;sensor_type;location;lat;lon;timestamp;P1;durP1;ratioP1;P2;durP2;ratioP2
72422;SDS011;71399;54.146;38.734;2024-02-28T00:01:06;3.83;;;1.83;;
72422;SDS011;71399;54.146;38.734;2024-02-28T00:03:32;2.88;;;1.60;;
72422;SDS011;71399;54.146;38.734;2024-02-28T00:05:59;4.72;;;2.00;;
72422;SDS011;71399;54.146;38.734;2024-02-28T00:08:25;3.40;;;1.75;;
72422;SDS011;71399;54.146;38.734;2024-02-28T00:10:52;4.57;;;1.88;;
72422;SDS011;71399;54.146;38.734;2024-02-28T00:13:18;4.25;;;1.73;;
72422;SDS011;71399;54.146;38.734;2024-02-28T00:15:45;4.88;;;1.58;;
72422;SDS011;71399;54.146;38.734;2024-02-28T00:18:12;4.53;;;1.90;;
72422;SDS011;71399;54.146;38.734;2024-02-28T00:20:38;2.88;;;1.50;;
72422;SDS011;71399;54.146;38.734;2024-02-28T00:23:04;3.92;;;1.52;;
72422;SDS011;71399;54.146;38.734;2024-02-28T00:25:31;5.10;;;1.70;;
72422;SDS011;71399;54.146;38.734;2024-02-28T00:27:57;4.75;;;1.85;;
72422;SDS011;71399;54.146;38.734;2024-02-28T00:30:23;3.55;;;1.88;;
72422;SDS011;71399;54.146;38.734;2024-02-28T00:32:49;6.47;;;1.92;;
72422;SDS011;71399;54.146;38.734;2024-02-28T00:35:15;3.60;;;1.90;;
72422;SDS011;71399;54.146;38.734;2024-02-28T00:37:42;9.32;;;1.60;;
72422;SDS011;71399;54.146;38.734;2024-02-28T00:40:08;3.85;;;1.60;;
72422;SDS011;71399;54.146;38.734;2024-02-28T00:42:35;6.28;;;1.80;;
72422;SDS011;71399;54.146;38.734;2024-02-28T00:45:01;3.53;;;1.40;;
72422;SDS011;71399;54.146;38.734;2024-02-28T00:47:29;4.35;;;1.58;;
72422;SDS011;71399;54.146;38.734;2024-02-28T00:49:55;5.80;;;1.67;;
72422;SDS011;71399;54.146;38.734;2024-02-28T00:52:22;2.85;;;1.30;;
72422;SDS011;71399;54.146;38.734;2024-02-28T00:54:50;3.45;;;1.55;;
72422;SDS011;71399;54.146;38.734;2024-02-28T00:57:16;4.80;;;1.60;;
72422;SDS011;71399;54.146;38.734;2024-02-28T00:59:45;3.05;;;1.20;;
72422;SDS011;71399;54.146;38.734;2024-02-28T01:02:12;4.43;;;1.90;;
72422;SDS011;71399;54.146;38.734;2024-02-28T01:04:39;4.72;;;1.40;;
72422;SDS011;71399;54.146;38.734;2024-02-28T01:07:07;3.47;;;1.52;;
72422;SDS011;71399;54.146;38.734;2024-02-28T01:09:34;5.10;;;1.63;;
72422;SDS011;71399;54.146;38.734;2024-02-28T01:12:00;3.53;;;1.35;;
72422;SDS011;71399;54.146;38.734;2024-02-28T01:14:27;2.97;;;1.02;;
72422;SDS011;71399;54.146;38.734;2024-02-28T01:16:53;3.05;;;1.17;;
72422;SDS011;71399;54.146;38.734;2024-02-28T01:19:20;3.28;;;1.60;;
72422;SDS011;71399;54.146;38.734;2024-02-28T01:21:46;3.85;;;1.80;;
72422;SDS011;71399;54.146;38.734;2024-02-28T01:24:12;6.35;;;1.65;;
72422;SDS011;71399;54.146;38.734;2024-02-28T01:26:39;2.88;;;1.25;;
72422;SDS011;71399;54.146;38.734;2024-02-28T01:29:06;6.90;;;1.33;;
72422;SDS011;71399;54.146;38.734;2024-02-28T01:31:32;8.93;;;1.60;;
72422;SDS011;71399;54.146;38.734;2024-02-28T01:33:58;5.70;;;3.05;;
72422;SDS011;71399;54.146;38.734;2024-02-28T01:36:25;2.85;;;1.45;;
72422;SDS011;71399;54.146;38.734;2024-02-28T01:38:52;3.42;;;1.50;;
72422;SDS011;71399;54.146;38.734;2024-02-28T01:41:18;4.18;;;1.50;;
72422;SDS011;71399;54.146;38.734;2024-02-28T01:43:44;4.05;;;1.42;;
72422;SDS011;71399;54.146;38.734;2024-02-28T01:46:28;4.07;;;1.55;;
72422;SDS011;71399;54.146;38.734;2024-02-28T01:48:57;3.50;;;1.80;;
72422;SDS011;71399;54.146;38.734;2024-02-28T01:51:25;4.25;;;1.17;;
72422;SDS011;71399;54.146;38.734;2024-02-28T01:53:54;5.57;;;2.17;;
72422;SDS011;71399;54.146;38.734;2024-02-28T01:56:22;4.57;;;1.38;;
72422;SDS011;71399;54.146;38.734;2024-02-28T01:58:50;2.90;;;1.30;;
72422;SDS011;71399;54.146;38.734;2024-02-28T02:01:18;3.95;;;1.70;;
72422;SDS011;71399;54.146;38.734;2024-02-28T02:03:50;4.47;;;2.55;;
72422;SDS011;71399;54.146;38.734;2024-02-28T02:06:16;3.92;;;1.40;;
72422;SDS011;71399;54.146;38.734;2024-02-28T02:08:42;4.18;;;1.67;;
72422;SDS011;71399;54.146;38.734;2024-02-28T02:11:09;2.90;;;1.30;;
72422;SDS011;71399;54.146;38.734;2024-02-28T02:13:35;7.35;;;1.65;;
72422;SDS011;71399;54.146;38.734;2024-02-28T02:16:02;1.52;;;1.25;;
72422;SDS011;71399;54.146;38.734;2024-02-28T02:18:28;4.63;;;1.40;;
72422;SDS011;71399;54.146;38.734;2024-02-28T02:20:58;4.93;;;1.40;;
72422;SDS011;71399;54.146;38.734;2024-02-28T02:23:28;5.70;;;1.40;;
72422;SDS011;71399;54.146;38.734;2024-02-28T02:25:54;15.07;;;1.48;;
72422;SDS011;71399;54.146;38.734;2024-02-28T02:28:20;6.43;;;1.27;;
72422;SDS011;71399;54.146;38.734;2024-02-28T02:30:46;2.63;;;1.42;;
72422;SDS011;71399;54.146;38.734;2024-02-28T02:33:13;3.95;;;1.48;;
72422;SDS011;71399;54.146;38.734;2024-02-28T02:35:39;2.20;;;1.25;;
72422;SDS011;71399;54.146;38.734;2024-02-28T02:38:05;6.40;;;1.75;;
72422;SDS011;71399;54.146;38.734;2024-02-28T02:40:32;4.70;;;1.60;;
72422;SDS011;71399;54.146;38.734;2024-02-28T02:42:58;3.30;;;1.30;;
72422;SDS011;71399;54.146;38.734;2024-02-28T02:45:24;3.45;;;1.52;;
72422;SDS011;71399;54.146;38.734;2024-02-28T02:47:51;6.03;;;1.45;;
72422;SDS011;71399;54.146;38.734;2024-02-28T02:50:17;5.07;;;1.48;;
72422;SDS011;71399;54.146;38.734;2024-02-28T02:52:43;3.55;;;1.70;;
72422;SDS011;71399;54.146;38.734;2024-02-28T02:55:09;4.53;;;1.80;;
72422;SDS011;71399;54.146;38.734;2024-02-28T02:57:35;4.03;;;1.63;;
72422;SDS011;71399;54.146;38.734;2024-02-28T03:00:02;7.03;;;1.40;;
72422;SDS011;71399;54.146;38.734;2024-02-28T03:02:30;3.45;;;1.60;;
72422;SDS011;71399;54.146;38.734;2024-02-28T03:04:57;4.65;;;1.25;;
72422;SDS011;71399;54.146;38.734;2024-02-28T03:07:24;3.22;;;1.48;;
72422;SDS011;71399;54.146;38.734;2024-02-28T03:09:50;3.90;;;1.20;;
72422;SDS011;71399;54.146;38.734;2024-02-28T03:12:16;4.10;;;1.40;;
72422;SDS011;71399;54.146;38.734;2024-02-28T03:14:43;3.60;;;1.20;;
72422;SDS011;71399;54.146;38.734;2024-02-28T03:17:09;2.63;;;1.35;;
72422;SDS011;71399;54.146;38.734;2024-02-28T03:19:35;4.65;;;1.30;;
72422;SDS011;71399;54.146;38.734;2024-02-28T03:22:02;6.95;;;1.40;;
72422;SDS011;71399;54.146;38.734;2024-02-28T03:24:28;2.97;;;1.33;;
72422;SDS011;71399;54.146;38.734;2024-02-28T03:26:55;2.70;;;1.50;;
72422;SDS011;71399;54.146;38.734;2024-02-28T03:29:21;5.10;;;1.50;;
72422;SDS011;71399;54.146;38.734;2024-02-28T03:31:47;2.92;;;1.40;;
72422;SDS011;71399;54.146;38.734;2024-02-28T03:34:13;3.35;;;1.73;;
72422;SDS011;71399;54.146;38.734;2024-02-28T03:36:40;2.70;;;1.30;;
72422;SDS011;71399;54.146;38.734;2024-02-28T03:39:06;4.80;;;1.60;;
72422;SDS011;71399;54.146;38.734;2024-02-28T03:41:32;3.03;;;1.25;;
72422;SDS011;71399;54.146;38.734;2024-02-28T03:43:58;3.92;;;1.50;;
72422;SDS011;71399;54.146;38.734;2024-02-28T03:46:24;7.22;;;2.58;;
72422;SDS011;71399;54.146;38.734;2024-02-28T03:48:51;2.92;;;1.42;;
72422;SDS011;71399;54.146;38.734;2024-02-28T03:51:17;2.83;;;1.40;;
72422;SDS011;71399;54.146;38.734;2024-02-28T03:53:43;4.13;;;1.30;;
72422;SDS011;71399;54.146;38.734;2024-02-28T03:56:10;5.25;;;1.23;;
72422;SDS011;71399;54.146;38.734;2024-02-28T03:58:37;2.10;;;1.02;;
72422;SDS011;71399;54.146;38.734;2024-02-28T04:01:05;4.75;;;1.50;;
72422;SDS011;71399;54.146;38.734;2024-02-28T04:03:32;2.88;;;1.30;;
72422;SDS011;71399;54.146;38.734;2024-02-28T04:05:58;3.40;;;1.58;;
72422;SDS011;71399;54.146;38.734;2024-02-28T04:08:24;2.85;;;1.25;;
72422;SDS011;71399;54.146;38.734;2024-02-28T04:10:50;2.45;;;1.20;;
72422;SDS011;71399;54.146;38.734;2024-02-28T04:13:17;2.90;;;1.20;;
72422;SDS011;71399;54.146;38.734;2024-02-28T04:15:43;4.43;;;1.40;;
72422;SDS011;71399;54.146;38.734;2024-02-28T04:18:11;4.45;;;1.70;;
72422;SDS011;71399;54.146;38.734;2024-02-28T04:20:37;4.72;;;1.67;;
72422;SDS011;71399;54.146;38.734;2024-02-28T04:23:04;4.90;;;1.40;;
72422;SDS011;71399;54.146;38.734;2024-02-28T04:25:30;3.55;;;1.42;;
72422;SDS011;71399;54.146;38.734;2024-02-28T04:27:56;4.78;;;1.40;;
72422;SDS011;71399;54.146;38.734;2024-02-28T04:30:23;5.32;;;1.77;;
72422;SDS011;71399;54.146;38.734;2024-02-28T04:32:49;4.65;;;1.42;;
72422;SDS011;71399;54.146;38.734;2024-02-28T04:35:15;2.75;;;1.33;;
72422;SDS011;71399;54.146;38.734;2024-02-28T04:37:44;3.55;;;1.30;;
72422;SDS011;71399;54.146;38.734;2024-02-28T04:40:13;4.60;;;1.42;;
72422;SDS011;71399;54.146;38.734;2024-02-28T04:42:41;2.80;;;1.20;;
72422;SDS011;71399;54.146;38.734;2024-02-28T04:45:09;3.70;;;1.50;;
72422;SDS011;71399;54.146;38.734;2024-02-28T04:47:36;2.13;;;1.23;;
72422;SDS011;71399;54.146;38.734;2024-02-28T04:50:02;3.53;;;1.42;;
72422;SDS011;71399;54.146;38.734;2024-02-28T04:52:32;2.10;;;1.30;;
72422;SDS011;71399;54.146;38.734;2024-02-28T04:54:59;6.47;;;1.70;;
72422;SDS011;71399;54.146;38.734;2024-02-28T04:57:26;2.58;;;1.15;;
72422;SDS011;71399;54.146;38.734;2024-02-28T04:59:52;5.70;;;1.52;;
72422;SDS011;71399;54.146;38.734;2024-02-28T05:02:18;3.28;;;1.25;;
72422;SDS011;71399;54.146;38.734;2024-02-28T05:04:47;3.08;;;1.40;;
72422;SDS011;71399;54.146;38.734;2024-02-28T05:07:14;4.20;;;1.60;;
72422;SDS011;71399;54.146;38.734;2024-02-28T05:09:41;3.15;;;1.63;;
72422;SDS011;71399;54.146;38.734;2024-02-28T05:12:07;3.05;;;1.30;;
72422;SDS011;71399;54.146;38.734;2024-02-28T05:14:33;6.65;;;1.73;;
72422;SDS011;71399;54.146;38.734;2024-02-28T05:17:00;3.22;;;1.38;;
72422;SDS011;71399;54.146;38.734;2024-02-28T05:19:26;1.95;;;1.10;;
72422;SDS011;71399;54.146;38.734;2024-02-28T05:21:52;3.40;;;1.60;;
72422;SDS011;71399;54.146;38.734;2024-02-28T05:24:19;6.35;;;1.40;;
72422;SDS011;71399;54.146;38.734;2024-02-28T05:26:45;3.50;;;1.25;;
72422;SDS011;71399;54.146;38.734;2024-02-28T05:29:12;3.22;;;1.27;;
72422;SDS011;71399;54.146;38.734;2024-02-28T05:31:38;3.72;;;1.50;;
72422;SDS011;71399;54.146;38.734;2024-02-28T05:34:04;5.45;;;1.52;;
72422;SDS011;71399;54.146;38.734;2024-02-28T05:36:31;3.10;;;1.50;;
72422;SDS011;71399;54.146;38.734;2024-02-28T05:38:57;5.53;;;1.73;;
72422;SDS011;71399;54.146;38.734;2024-02-28T05:41:25;5.05;;;1.58;;
72422;SDS011;71399;54.146;38.734;2024-02-28T05:43:51;5.13;;;1.75;;
72422;SDS011;71399;54.146;38.734;2024-02-28T05:46:18;4.72;;;2.25;;
72422;SDS011;71399;54.146;38.734;2024-02-28T05:48:45;3.55;;;1.52;;
72422;SDS011;71399;54.146;38.734;2024-02-28T05:51:12;5.78;;;2.00;;
72422;SDS011;71399;54.146;38.734;2024-02-28T05:53:41;4.45;;;1.90;;
72422;SDS011;71399;54.146;38.734;2024-02-28T05:56:08;3.78;;;1.50;;
72422;SDS011;71399;54.146;38.734;2024-02-28T05:58:46;5.07;;;1.55;;
72422;SDS011;71399;54.146;38.734;2024-02-28T06:01:16;4.45;;;1.63;;
72422;SDS011;71399;54.146;38.734;2024-02-28T06:03:50;3.95;;;1.60;;
72422;SDS011;71399;54.146;38.734;2024-02-28T06:06:16;5.43;;;1.77;;
72422;SDS011;71399;54.146;38.734;2024-02-28T06:08:43;4.28;;;1.50;;
72422;SDS011;71399;54.146;38.734;2024-02-28T06:11:10;3.78;;;1.50;;
72422;SDS011;71399;54.146;38.734;2024-02-28T06:13:37;4.95;;;1.50;;
72422;SDS011;71399;54.146;38.734;2024-02-28T06:16:06;3.80;;;1.33;;
72422;SDS011;71399;54.146;38.734;2024-02-28T06:18:33;2.85;;;1.45;;
72422;SDS011;71399;54.146;38.734;2024-02-28T06:20:59;7.35;;;1.77;;
72422;SDS011;71399;54.146;38.734;2024-02-28T06:23:26;2.67;;;1.45;;
72422;SDS011;71399;54.146;38.734;2024-02-28T06:25:53;5.30;;;1.95;;
72422;SDS011;71399;54.146;38.734;2024-02-28T06:28:19;4.18;;;1.60;;
72422;SDS011;71399;54.146;38.734;2024-02-28T06:30:46;4.57;;;2.00;;
72422;SDS011;71399;54.146;38.734;2024-02-28T06:33:13;7.13;;;2.50;;
72422;SDS011;71399;54.146;38.734;2024-02-28T06:35:40;4.55;;;2.10;;
72422;SDS011;71399;54.146;38.734;2024-02-28T06:38:06;4.38;;;1.60;;
72422;SDS011;71399;54.146;38.734;2024-02-28T06:40:33;6.82;;;1.75;;
72422;SDS011;71399;54.146;38.734;2024-02-28T06:43:00;5.75;;;2.42;;
72422;SDS011;71399;54.146;38.734;2024-02-28T06:45:27;13.60;;;2.25;;
72422;SDS011;71399;54.146;38.734;2024-02-28T06:47:54;2.60;;;1.52;;
72422;SDS011;71399;54.146;38.734;2024-02-28T06:50:20;3.65;;;1.80;;
72422;SDS011;71399;54.146;38.734;2024-02-28T06:52:47;5.85;;;2.03;;
72422;SDS011;71399;54.146;38.734;2024-02-28T06:55:13;3.97;;;1.50;;
72422;SDS011;71399;54.146;38.734;2024-02-28T06:57:40;6.00;;;1.70;;
72422;SDS011;71399;54.146;38.734;2024-02-28T07:00:08;4.00;;;1.52;;
72422;SDS011;71399;54.146;38.734;2024-02-28T07:02:37;5.65;;;1.80;;
72422;SDS011;71399;54.146;38.734;2024-02-28T07:05:04;5.50;;;1.92;;
72422;SDS011;71399;54.146;38.734;2024-02-28T07:07:32;6.18;;;1.67;;
72422;SDS011;71399;54.146;38.734;2024-02-28T07:09:59;4.75;;;1.40;;
72422;SDS011;71399;54.146;38.734;2024-02-28T07:12:29;8.00;;;2.00;;
72422;SDS011;71399;54.146;38.734;2024-02-28T07:14:55;6.55;;;1.90;;
72422;SDS011;71399;54.146;38.734;2024-02-28T07:17:21;5.53;;;2.05;;
72422;SDS011;71399;54.146;38.734;2024-02-28T07:19:48;4.45;;;2.00;;
72422;SDS011;71399;54.146;38.734;2024-02-28T07:22:14;5.28;;;2.10;;
72422;SDS011;71399;54.146;38.734;2024-02-28T07:24:40;5.03;;;1.50;;
72422;SDS011;71399;54.146;38.734;2024-02-28T07:27:07;6.28;;;2.05;;
72422;SDS011;71399;54.146;38.734;2024-02-28T07:29:33;2.63;;;1.50;;
72422;SDS011;71399;54.146;38.734;2024-02-28T07:32:00;3.97;;;1.70;;
72422;SDS011;71399;54.146;38.734;2024-02-28T07:34:29;3.95;;;1.48;;
72422;SDS011;71399;54.146;38.734;2024-02-28T07:36:55;6.07;;;2.10;;
72422;SDS011;71399;54.146;38.734;2024-02-28T07:39:22;5.88;;;1.88;;
72422;SDS011;71399;54.146;38.734;2024-02-28T07:41:50;3.63;;;1.90;;
72422;SDS011;71399;54.146;38.734;2024-02-28T07:44:19;4.32;;;2.72;;
72422;SDS011;71399;54.146;38.734;2024-02-28T07:46:45;5.45;;;1.98;;
72422;SDS011;71399;54.146;38.734;2024-02-28T07:49:13;6.78;;;1.70;;
72422;SDS011;71399;54.146;38.734;2024-02-28T07:51:39;5.80;;;2.63;;
72422;SDS011;71399;54.146;38.734;2024-02-28T07:54:06;7.97;;;1.98;;
72422;SDS011;71399;54.146;38.734;2024-02-28T07:56:32;7.07;;;1.70;;
72422;SDS011;71399;54.146;38.734;2024-02-28T07:58:58;4.05;;;1.95;;
72422;SDS011;71399;54.146;38.734;2024-02-28T08:01:24;7.25;;;2.17;;
72422;SDS011;71399;54.146;38.734;2024-02-28T08:03:51;3.92;;;1.95;;
72422;SDS011;71399;54.146;38.734;2024-02-28T08:06:17;6.38;;;1.65;;
72422;SDS011;71399;54.146;38.734;2024-02-28T08:08:44;6.75;;;2.05;;
72422;SDS011;71399;54.146;38.734;2024-02-28T08:11:12;4.18;;;1.67;;
72422;SDS011;71399;54.146;38.734;2024-02-28T08:13:39;7.88;;;1.90;;
72422;SDS011;71399;54.146;38.734;2024-02-28T08:16:05;4.85;;;1.90;;
72422;SDS011;71399;54.146;38.734;2024-02-28T08:18:34;4.38;;;1.70;;
72422;SDS011;71399;54.146;38.734;2024-02-28T08:21:01;6.53;;;2.00;;
72422;SDS011;71399;54.146;38.734;2024-02-28T08:23:29;5.95;;;2.00;;
72422;SDS011;71399;54.146;38.734;2024-02-28T08:25:56;8.52;;;2.25;;
72422;SDS011;71399;54.146;38.734;2024-02-28T08:28:23;6.57;;;1.85;;
72422;SDS011;71399;54.146;38.734;2024-02-28T08:30:49;7.05;;;2.10;;
72422;SDS011;71399;54.146;38.734;2024-02-28T08:33:15;5.30;;;2.30;;
72422;SDS011;71399;54.146;38.734;2024-02-28T08:35:42;5.55;;;2.08;;
72422;SDS011;71399;54.146;38.734;2024-02-28T08:38:08;6.82;;;2.22;;
72422;SDS011;71399;54.146;38.734;2024-02-28T08:40:35;4.30;;;1.52;;
72422;SDS011;71399;54.146;38.734;2024-02-28T08:43:01;6.55;;;2.50;;
72422;SDS011;71399;54.146;38.734;2024-02-28T08:45:27;6.90;;;2.25;;
72422;SDS011;71399;54.146;38.734;2024-02-28T08:47:54;5.93;;;2.05;;
72422;SDS011;71399;54.146;38.734;2024-02-28T08:50:20;7.55;;;2.28;;
72422;SDS011;71399;54.146;38.734;2024-02-28T08:52:46;4.28;;;2.22;;
72422;SDS011;71399;54.146;38.734;2024-02-28T08:55:13;12.43;;;2.75;;
72422;SDS011;71399;54.146;38.734;2024-02-28T08:57:39;6.50;;;2.42;;
72422;SDS011;71399;54.146;38.734;2024-02-28T09:00:05;6.50;;;2.20;;
72422;SDS011;71399;54.146;38.734;2024-02-28T09:02:34;6.72;;;2.33;;
72422;SDS011;71399;54.146;38.734;2024-02-28T09:05:03;7.50;;;2.53;;
72422;SDS011;71399;54.146;38.734;2024-02-28T09:07:30;4.00;;;2.15;;
72422;SDS011;71399;54.146;38.734;2024-02-28T09:09:56;4.22;;;2.10;;
72422;SDS011;71399;54.146;38.734;2024-02-28T09:12:23;7.57;;;2.42;;
72422;SDS011;71399;54.146;38.734;2024-02-28T09:14:49;5.45;;;2.17;;
72422;SDS011;71399;54.146;38.734;2024-02-28T09:17:22;7.80;;;2.55;;
72422;SDS011;71399;54.146;38.734;2024-02-28T09:19:48;6.82;;;2.10;;
72422;SDS011;71399;54.146;38.734;2024-02-28T09:22:14;9.27;;;2.00;;
72422;SDS011;71399;54.146;38.734;2024-02-28T09:24:42;5.18;;;2.30;;
72422;SDS011;71399;54.146;38.734;2024-02-28T09:27:08;6.97;;;2.38;;
72422;SDS011;71399;54.146;38.734;2024-02-28T09:29:34;5.53;;;2.00;;
72422;SDS011;71399;54.146;38.734;2024-02-28T09:32:01;14.27;;;2.65;;
72422;SDS011;71399;54.146;38.734;2024-02-28T09:34:27;6.40;;;2.35;;
72422;SDS011;71399;54.146;38.734;2024-02-28T09:36:53;5.05;;;2.15;;
72422;SDS011;71399;54.146;38.734;2024-02-28T09:39:19;5.13;;;2.55;;
72422;SDS011;71399;54.146;38.734;2024-02-28T09:41:47;11.65;;;2.67;;
72422;SDS011;71399;54.146;38.734;2024-02-28T09:44:17;9.63;;;3.20;;
72422;SDS011;71399;54.146;38.734;2024-02-28T09:46:44;4.68;;;2.55;;
72422;SDS011;71399;54.146;38.734;2024-02-28T09:49:11;6.43;;;2.15;;
72422;SDS011;71399;54.146;38.734;2024-02-28T09:51:39;12.48;;;2.53;;
72422;SDS011;71399;54.146;38.734;2024-02-28T09:54:06;14.45;;;2.70;;
72422;SDS011;71399;54.146;38.734;2024-02-28T09:56:32;12.00;;;2.75;;
72422;SDS011;71399;54.146;38.734;2024-02-28T09:59:00;8.40;;;2.13;;
72422;SDS011;71399;54.146;38.734;2024-02-28T10:01:28;5.80;;;2.25;;
72422;SDS011;71399;54.146;38.734;2024-02-28T10:03:56;9.55;;;2.58;;
72422;SDS011;71399;54.146;38.734;2024-02-28T10:06:25;10.05;;;2.65;;
72422;SDS011;71399;54.146;38.734;2024-02-28T10:08:51;8.88;;;2.47;;
72422;SDS011;71399;54.146;38.734;2024-02-28T10:11:19;5.95;;;2.55;;
72422;SDS011;71399;54.146;38.734;2024-02-28T10:13:47;6.57;;;2.60;;
72422;SDS011;71399;54.146;38.734;2024-02-28T10:16:13;8.77;;;2.30;;
72422;SDS011;71399;54.146;38.734;2024-02-28T10:18:43;8.00;;;2.80;;
72422;SDS011;71399;54.146;38.734;2024-02-28T10:21:10;10.68;;;2.40;;
72422;SDS011;71399;54.146;38.734;2024-02-28T10:23:44;10.68;;;2.28;;
72422;SDS011;71399;54.146;38.734;2024-02-28T10:26:11;8.93;;;2.45;;
72422;SDS011;71399;54.146;38.734;2024-02-28T10:28:38;9.13;;;2.67;;
72422;SDS011;71399;54.146;38.734;2024-02-28T10:31:06;12.38;;;3.13;;
72422;SDS011;71399;54.146;38.734;2024-02-28T10:33:33;9.63;;;2.35;;
72422;SDS011;71399;54.146;38.734;2024-02-28T10:36:05;7.45;;;2.30;;
72422;SDS011;71399;54.146;38.734;2024-02-28T10:38:31;5.82;;;2.17;;
72422;SDS011;71399;54.146;38.734;2024-02-28T10:41:00;7.65;;;2.60;;
72422;SDS011;71399;54.146;38.734;2024-02-28T10:43:30;8.25;;;2.30;;
72422;SDS011;71399;54.146;38.734;2024-02-28T10:45:57;6.57;;;2.50;;
72422;SDS011;71399;54.146;38.734;2024-02-28T10:48:25;10.02;;;2.40;;
72422;SDS011;71399;54.146;38.734;2024-02-28T10:50:52;8.48;;;2.20;;
72422;SDS011;71399;54.146;38.734;2024-02-28T10:53:43;10.40;;;2.90;;
72422;SDS011;71399;54.146;38.734;2024-02-28T10:56:11;12.07;;;2.50;;
72422;SDS011;71399;54.146;38.734;2024-02-28T10:58:44;16.08;;;2.60;;
72422;SDS011;71399;54.146;38.734;2024-02-28T11:01:20;5.72;;;2.30;;
72422;SDS011;71399;54.146;38.734;2024-02-28T11:03:48;14.43;;;2.45;;
72422;SDS011;71399;54.146;38.734;2024-02-28T11:06:16;9.80;;;2.60;;
72422;SDS011;71399;54.146;38.734;2024-02-28T11:08:45;7.72;;;2.30;;
72422;SDS011;71399;54.146;38.734;2024-02-28T11:11:14;11.40;;;2.40;;
72422;SDS011;71399;54.146;38.734;2024-02-28T11:13:52;5.85;;;2.30;;
72422;SDS011;71399;54.146;38.734;2024-02-28T11:16:27;10.88;;;2.45;;
72422;SDS011;71399;54.146;38.734;2024-02-28T11:18:57;11.15;;;2.17;;
72422;SDS011;71399;54.146;38.734;2024-02-28T11:21:25;7.57;;;2.70;;
72422;SDS011;71399;54.146;38.734;2024-02-28T11:23:52;6.38;;;2.08;;
72422;SDS011;71399;54.146;38.734;2024-02-28T11:26:22;13.20;;;2.80;;
72422;SDS011;71399;54.146;38.734;2024-02-28T11:28:50;8.27;;;2.58;;
72422;SDS011;71399;54.146;38.734;2024-02-28T11:31:16;12.07;;;3.35;;
72422;SDS011;71399;54.146;38.734;2024-02-28T11:33:44;6.97;;;2.50;;
72422;SDS011;71399;54.146;38.734;2024-02-28T11:36:13;5.88;;;2.25;;
72422;SDS011;71399;54.146;38.734;2024-02-28T11:38:40;8.10;;;2.67;;
72422;SDS011;71399;54.146;38.734;2024-02-28T11:41:07;11.68;;;2.60;;
72422;SDS011;71399;54.146;38.734;2024-02-28T11:43:34;12.93;;;2.80;;
72422;SDS011;71399;54.146;38.734;2024-02-28T11:46:01;13.25;;;2.65;;
72422;SDS011;71399;54.146;38.734;2024-02-28T11:48:27;10.15;;;3.75;;
72422;SDS011;71399;54.146;38.734;2024-02-28T11:50:54;7.43;;;2.47;;
72422;SDS011;71399;54.146;38.734;2024-02-28T11:53:20;14.02;;;2.47;;
72422;SDS011;71399;54.146;38.734;2024-02-28T11:55:46;10.40;;;2.35;;
72422;SDS011;71399;54.146;38.734;2024-02-28T11:58:13;8.90;;;2.30;;
72422;SDS011;71399;54.146;38.734;2024-02-28T12:00:58;6.40;;;2.40;;
72422;SDS011;71399;54.146;38.734;2024-02-28T12:03:24;5.68;;;2.45;;
72422;SDS011;71399;54.146;38.734;2024-02-28T12:05:52;11.40;;;2.28;;
72422;SDS011;71399;54.146;38.734;2024-02-28T12:08:19;16.92;;;2.33;;
72422;SDS011;71399;54.146;38.734;2024-02-28T12:10:46;9.38;;;2.53;;
72422;SDS011;71399;54.146;38.734;2024-02-28T12:13:16;12.20;;;2.45;;
72422;SDS011;71399;54.146;38.734;2024-02-28T12:15:45;9.70;;;2.70;;
72422;SDS011;71399;54.146;38.734;2024-02-28T12:18:16;8.45;;;2.50;;
72422;SDS011;71399;54.146;38.734;2024-02-28T12:20:43;9.13;;;2.63;;
72422;SDS011;71399;54.146;38.734;2024-02-28T12:23:11;11.35;;;2.80;;
72422;SDS011;71399;54.146;38.734;2024-02-28T12:25:37;9.23;;;3.40;;
72422;SDS011;71399;54.146;38.734;2024-02-28T12:28:04;14.13;;;2.45;;
72422;SDS011;71399;54.146;38.734;2024-02-28T12:30:38;14.30;;;2.70;;
72422;SDS011;71399;54.146;38.734;2024-02-28T12:35:34;12.18;;;3.35;;
72422;SDS011;71399;54.146;38.734;2024-02-28T12:38:00;22.92;;;3.00;;
72422;SDS011;71399;54.146;38.734;2024-02-28T12:40:27;11.38;;;2.78;;
72422;SDS011;71399;54.146;38.734;2024-02-28T12:42:53;15.90;;;2.58;;
72422;SDS011;71399;54.146;38.734;2024-02-28T12:45:19;9.93;;;2.60;;
72422;SDS011;71399;54.146;38.734;2024-02-28T12:47:45;14.20;;;3.10;;
72422;SDS011;71399;54.146;38.734;2024-02-28T12:50:11;12.52;;;3.15;;
72422;SDS011;71399;54.146;38.734;2024-02-28T12:52:38;10.73;;;2.78;;
72422;SDS011;71399;54.146;38.734;2024-02-28T12:55:04;17.52;;;3.25;;
72422;SDS011;71399;54.146;38.734;2024-02-28T12:57:30;13.68;;;3.70;;
72422;SDS011;71399;54.146;38.734;2024-02-28T12:59:56;20.65;;;6.65;;
72422;SDS011;71399;54.146;38.734;2024-02-28T13:02:23;19.10;;;5.15;;
72422;SDS011;71399;54.146;38.734;2024-02-28T13:04:49;20.55;;;5.30;;
72422;SDS011;71399;54.146;38.734;2024-02-28T13:07:15;11.70;;;3.70;;
72422;SDS011;71399;54.146;38.734;2024-02-28T13:09:42;11.65;;;3.40;;
72422;SDS011;71399;54.146;38.734;2024-02-28T13:12:08;11.25;;;3.92;;
72422;SDS011;71399;54.146;38.734;2024-02-28T13:14:34;22.20;;;8.80;;
72422;SDS011;71399;54.146;38.734;2024-02-28T13:17:00;19.92;;;5.40;;
72422;SDS011;71399;54.146;38.734;2024-02-28T13:19:27;11.80;;;5.38;;
72422;SDS011;71399;54.146;38.734;2024-02-28T13:21:53;15.20;;;4.30;;
72422;SDS011;71399;54.146;38.734;2024-02-28T13:24:19;15.07;;;3.50;;
72422;SDS011;71399;54.146;38.734;2024-02-28T13:26:45;14.63;;;3.15;;
72422;SDS011;71399;54.146;38.734;2024-02-28T13:29:11;14.60;;;3.75;;
72422;SDS011;71399;54.146;38.734;2024-02-28T13:31:38;13.73;;;3.35;;
72422;SDS011;71399;54.146;38.734;2024-02-28T13:34:04;10.52;;;2.67;;
72422;SDS011;71399;54.146;38.734;2024-02-28T13:36:31;15.23;;;2.88;;
72422;SDS011;71399;54.146;38.734;2024-02-28T13:38:58;7.35;;;3.13;;
72422;SDS011;71399;54.146;38.734;2024-02-28T13:41:24;6.82;;;2.60;;
72422;SDS011;71399;54.146;38.734;2024-02-28T13:43:50;18.48;;;3.80;;
72422;SDS011;71399;54.146;38.734;2024-02-28T13:46:16;17.50;;;4.03;;
72422;SDS011;71399;54.146;38.734;2024-02-28T13:48:45;20.63;;;4.60;;
72422;SDS011;71399;54.146;38.734;2024-02-28T13:51:12;17.10;;;3.15;;
72422;SDS011;71399;54.146;38.734;2024-02-28T13:53:38;8.90;;;2.67;;
72422;SDS011;71399;54.146;38.734;2024-02-28T13:56:04;15.82;;;3.05;;
72422;SDS011;71399;54.146;38.734;2024-02-28T13:58:31;8.50;;;2.78;;
72422;SDS011;71399;54.146;38.734;2024-02-28T14:00:58;14.95;;;3.78;;
72422;SDS011;71399;54.146;38.734;2024-02-28T14:03:24;14.30;;;5.20;;
72422;SDS011;71399;54.146;38.734;2024-02-28T14:05:51;18.63;;;4.50;;
72422;SDS011;71399;54.146;38.734;2024-02-28T14:08:17;17.08;;;6.03;;
72422;SDS011;71399;54.146;38.734;2024-02-28T14:10:44;13.40;;;3.03;;
72422;SDS011;71399;54.146;38.734;2024-02-28T14:13:10;13.00;;;2.83;;
72422;SDS011;71399;54.146;38.734;2024-02-28T14:15:38;13.23;;;3.58;;
72422;SDS011;71399;54.146;38.734;2024-02-28T14:18:04;12.23;;;2.85;;
72422;SDS011;71399;54.146;38.734;2024-02-28T14:20:30;12.73;;;2.28;;
72422;SDS011;71399;54.146;38.734;2024-02-28T14:22:57;17.40;;;2.72;;
72422;SDS011;71399;54.146;38.734;2024-02-28T14:25:24;11.25;;;3.00;;
72422;SDS011;71399;54.146;38.734;2024-02-28T14:27:51;15.23;;;3.13;;
72422;SDS011;71399;54.146;38.734;2024-02-28T14:30:17;12.40;;;2.88;;
72422;SDS011;71399;54.146;38.734;2024-02-28T14:32:43;11.18;;;2.80;;